Terminal Aerodrome Forecast
Issued by NWS

Home | Current Version | Previous Version | Text Only | Print | Product List | Glossary On
Versions: 1 2 3 4 5 6 7 8 9 10 11 12 13
000
FTUS45 KRIW 241700
TAFBPI
TAF
KBPI 241720Z 2418/2518 26010KT P6SM FEW050 SCT100
      TEMPO 2418/2420 BKN050
     FM250200 VRB05KT P6SM FEW050
     FM251200 VRB05KT P6SM VCSH BKN050=

USA.gov is the U.S. government's official web portal to all federal, state and local government web resources and services.